Portada
METAR-TAF:

METAR-TAF

Aeroports :

Port Moresby, Papua Nova Guinea

latitud: 09-26S, longitud: 147-13E, altitud: 38 m

Observació

L'informe es va fer fa 6 hores i 1 minuts, a les 08:00 UTC
Vent 10 kt del Sud/Sud-Est amb ràfegues de 15 kt
Temperatura 28°C
Humitat 79%
Pressió 1008 hPa
Visibilitat 10 km o més
Núvols disperses a una alçada de 4000 ft

METAR: AYPY 070800Z 16010G15KT 9999 SCT040 28/24 Q1008

Hora: 00:01 (14:01 UTC)

Pronòstic

L'informe es va fer fa 10 hores i 0 minuts, a les 04:01 UTC
Pronòstic vàlid del 07 a les 06 UTC al 08 a les 06 UTC
Vent 8 kt del Sud
Visibilitat 10 km o més
Núvols disperses a una alçada de 2500 ft
A partir de les 07 a les 1000 UTC
Vent 3 kt amb direcció variable
Visibilitat: 1008 m
Núvols disperses a una alçada de 4000 ft

TAF: AYPY 070401Z 0706/0806 18008KT 9999 SCT025 FM071000 VRB03KT 9999 SCT040 T 31 29 27 25 Q 1006 1007 1009 1008

Observacions i pronòstics meteorològics de més de 4000 aeroports (METAR i TAF).

Les estacions disponibles són els punts grocs i vermells al mapa.

Posi el ratolí al punt desitjat per veure el nom de l'estació.

Feu clic per veure les observacions i els pronòstics meteorològics.

Per canviar el mapa: feu clic els botons verds amb una creu de color negre per apropar; al botó verd amb un guió per allunyar la imatge; o en les fletxes verdes per a mapes adjacents.


METAR-TAF: